Time;durP1;ratioP1;P1;durP2;ratioP2;P2;SDS_P1;SDS_P2;PMS_P1;PMS_P2;Temp;Humidity;BMP_temperature;BMP_pressure;BME280_temperature;BME280_humidity;BME280_pressure;Samples;Min_cycle;Max_cycle;Signal;HPM_P1;HPM_P2
2022/06/15 00:00:44;;;;;;;22.93;21.43;;;;;;;;;;5033268;28;20451;-79
2022/06/15 00:03:12;;;;;;;24.30;22.80;;;;;;;;;;5033170;28;20543;-79
2022/06/15 00:05:42;;;;;;;23.70;22.20;;;;;;;;;;5033437;28;20433;-80
2022/06/15 00:08:10;;;;;;;24.30;22.80;;;;;;;;;;5033037;28;20960;-79
2022/06/15 00:10:39;;;;;;;23.40;21.90;;;;;;;;;;5033376;28;20448;-80
2022/06/15 00:13:06;;;;;;;23.30;21.90;;;;;;;;;;5032597;28;20970;-79
2022/06/15 00:15:34;;;;;;;23.23;21.83;;;;;;;;;;5033189;28;20447;-79
2022/06/15 00:18:01;;;;;;;23.70;22.30;;;;;;;;;;5032932;28;20447;-80
2022/06/15 00:20:28;;;;;;;23.93;22.00;;;;;;;;;;5033299;28;20419;-79
2022/06/15 00:22:57;;;;;;;24.40;22.80;;;;;;;;;;5032917;28;20939;-79
2022/06/15 00:25:24;;;;;;;23.17;21.77;;;;;;;;;;5033203;28;20455;-79
2022/06/15 00:27:52;;;;;;;23.60;22.17;;;;;;;;;;5032828;28;20412;-79
2022/06/15 00:30:21;;;;;;;23.60;22.10;;;;;;;;;;5032738;28;20972;-79
2022/06/15 00:32:48;;;;;;;23.83;22.27;;;;;;;;;;5033037;28;20454;-79
2022/06/15 00:35:17;;;;;;;24.77;23.23;;;;;;;;;;5032903;28;20771;-79
2022/06/15 00:37:45;;;;;;;23.93;22.37;;;;;;;;;;5032685;28;20427;-79
2022/06/15 00:40:14;;;;;;;22.80;21.50;;;;;;;;;;5032686;28;20440;-79
2022/06/15 00:42:41;;;;;;;23.20;21.60;;;;;;;;;;5032792;28;20911;-79
2022/06/15 00:45:10;;;;;;;24.10;22.50;;;;;;;;;;5032636;28;20423;-79
2022/06/15 00:47:39;;;;;;;24.20;22.90;;;;;;;;;;5032861;28;20802;-79
2022/06/15 00:50:08;;;;;;;24.30;22.80;;;;;;;;;;5032616;28;20904;-79
2022/06/15 00:52:38;;;;;;;23.37;21.83;;;;;;;;;;5032541;28;20487;-79
2022/06/15 00:55:08;;;;;;;24.80;23.00;;;;;;;;;;5032800;28;20418;-79
2022/06/15 00:57:37;;;;;;;23.83;22.33;;;;;;;;;;5032535;28;20444;-79
2022/06/15 01:00:06;;;;;;;23.40;22.10;;;;;;;;;;5032540;28;20894;-79
2022/06/15 01:02:35;;;;;;;24.00;22.47;;;;;;;;;;5032739;28;20848;-79
2022/06/15 01:05:04;;;;;;;24.23;22.70;;;;;;;;;;5032680;28;20411;-79
2022/06/15 01:07:59;;;;;;;24.23;22.73;;;;;;;;;;5032233;28;20930;-79
2022/06/15 01:10:32;;;;;;;24.47;22.87;;;;;;;;;;4933147;29;20431;-79
2022/06/15 01:13:09;;;;;;;24.40;22.80;;;;;;;;;;4933091;28;20503;-79
2022/06/15 01:15:42;;;;;;;24.33;22.73;;;;;;;;;;4933054;29;20440;-79
2022/06/15 01:18:20;;;;;;;24.00;22.23;;;;;;;;;;4933035;29;20795;-79
2022/06/15 01:21:10;;;;;;;24.20;22.30;;;;;;;;;;4932991;29;20456;-78
2022/06/15 01:23:57;;;;;;;23.47;22.03;;;;;;;;;;4932986;29;20965;-80
2022/06/15 01:26:38;;;;;;;24.23;22.73;;;;;;;;;;4936421;29;20838;-79
2022/06/15 01:29:15;;;;;;;23.90;22.50;;;;;;;;;;4936930;29;20592;-79
2022/06/15 01:31:47;;;;;;;23.73;22.23;;;;;;;;;;4936580;29;20414;-79
2022/06/15 01:34:17;;;;;;;23.30;21.90;;;;;;;;;;4936486;29;20474;-79
2022/06/15 01:36:48;;;;;;;24.40;23.00;;;;;;;;;;4936435;29;20419;-79
2022/06/15 01:39:19;;;;;;;24.90;23.10;;;;;;;;;;4936349;29;20467;-79
2022/06/15 01:41:50;;;;;;;25.03;23.33;;;;;;;;;;4936661;29;20414;-79
2022/06/15 01:44:21;;;;;;;23.37;22.07;;;;;;;;;;4936355;29;20418;-79
2022/06/15 01:46:50;;;;;;;24.40;22.63;;;;;;;;;;5010490;28;20463;-79
2022/06/15 01:49:20;;;;;;;23.83;22.43;;;;;;;;;;5035824;28;20411;-79
2022/06/15 01:51:48;;;;;;;23.30;22.00;;;;;;;;;;5035692;28;20795;-79
2022/06/15 01:54:18;;;;;;;24.67;22.70;;;;;;;;;;5035734;28;20494;-79
2022/06/15 01:56:47;;;;;;;23.80;22.40;;;;;;;;;;5035629;28;20452;-79
2022/06/15 01:59:28;;;;;;;24.13;22.63;;;;;;;;;;5035937;28;20407;-79
2022/06/15 02:02:02;;;;;;;22.77;21.47;;;;;;;;;;5035846;28;20426;-79
2022/06/15 02:04:35;;;;;;;25.23;23.60;;;;;;;;;;5035791;28;20443;-79
2022/06/15 02:07:07;;;;;;;24.73;23.07;;;;;;;;;;5035638;28;20447;-78
2022/06/15 02:09:38;;;;;;;23.80;22.27;;;;;;;;;;5035729;28;20475;-79
2022/06/15 02:12:06;;;;;;;23.27;21.97;;;;;;;;;;5035631;28;20440;-78
2022/06/15 02:14:35;;;;;;;24.10;22.70;;;;;;;;;;5035588;28;20465;-79
2022/06/15 02:17:05;;;;;;;23.87;22.23;;;;;;;;;;5017528;28;20426;-79
2022/06/15 02:19:35;;;;;;;23.50;21.90;;;;;;;;;;5035380;28;20411;-79
2022/06/15 02:22:04;;;;;;;23.87;22.47;;;;;;;;;;5035465;28;20440;-79
2022/06/15 02:24:32;;;;;;;24.00;22.67;;;;;;;;;;5001530;28;20549;-79
2022/06/15 02:27:00;;;;;;;23.27;21.77;;;;;;;;;;5035346;28;20415;-79
2022/06/15 02:29:30;;;;;;;24.07;22.57;;;;;;;;;;5034985;28;20480;-79
2022/06/15 02:31:58;;;;;;;24.40;23.00;;;;;;;;;;5035279;28;20499;-79
2022/06/15 02:34:27;;;;;;;23.97;22.20;;;;;;;;;;5034943;28;20954;-79
2022/06/15 02:36:55;;;;;;;25.67;23.80;;;;;;;;;;5034227;28;20414;-80
2022/06/15 02:39:22;;;;;;;25.10;23.50;;;;;;;;;;5034850;28;20872;-79
2022/06/15 02:41:57;;;;;;;24.53;22.90;;;;;;;;;;5034839;28;20972;-79
2022/06/15 02:44:25;;;;;;;24.17;22.57;;;;;;;;;;5034852;28;20914;-80
2022/06/15 02:46:53;;;;;;;24.60;23.10;;;;;;;;;;5034908;28;20440;-79
2022/06/15 02:49:20;;;;;;;24.10;22.60;;;;;;;;;;5034609;28;20463;-78
2022/06/15 02:51:51;;;;;;;24.20;22.60;;;;;;;;;;5034904;28;20739;-79
2022/06/15 02:54:22;;;;;;;23.87;22.47;;;;;;;;;;5034866;28;20499;-79
2022/06/15 02:56:49;;;;;;;23.97;22.47;;;;;;;;;;5034747;28;20842;-79
2022/06/15 02:59:17;;;;;;;24.27;22.87;;;;;;;;;;5034773;28;20411;-79
2022/06/15 03:01:44;;;;;;;23.47;22.07;;;;;;;;;;5034770;28;21248;-80
2022/06/15 03:04:12;;;;;;;24.43;22.63;;;;;;;;;;5034128;28;20427;-80
2022/06/15 03:06:39;;;;;;;25.10;23.33;;;;;;;;;;5034446;28;20423;-79
2022/06/15 03:09:08;;;;;;;23.80;22.40;;;;;;;;;;5034663;28;20418;-79
2022/06/15 03:11:35;;;;;;;24.33;22.57;;;;;;;;;;5034387;28;20411;-79
2022/06/15 03:14:03;;;;;;;25.10;22.93;;;;;;;;;;5034445;28;20481;-79
2022/06/15 03:16:31;;;;;;;24.13;22.53;;;;;;;;;;5034092;28;20431;-79
2022/06/15 03:18:58;;;;;;;24.37;22.77;;;;;;;;;;5034441;28;20439;-79
2022/06/15 03:21:27;;;;;;;24.90;23.03;;;;;;;;;;5034076;28;20930;-79
2022/06/15 03:23:55;;;;;;;23.77;22.43;;;;;;;;;;5034210;28;20434;-79
2022/06/15 03:26:24;;;;;;;25.13;23.37;;;;;;;;;;5034234;28;20419;-79
2022/06/15 03:28:51;;;;;;;23.87;22.40;;;;;;;;;;5034144;28;20436;-79
2022/06/15 03:31:18;;;;;;;23.90;22.50;;;;;;;;;;5033948;28;20415;-79
2022/06/15 03:33:46;;;;;;;26.10;24.00;;;;;;;;;;5033742;28;20467;-78
2022/06/15 03:36:13;;;;;;;23.70;22.20;;;;;;;;;;5033913;28;20444;-78
2022/06/15 03:38:40;;;;;;;24.73;22.90;;;;;;;;;;5033867;28;20465;-79
2022/06/15 03:41:08;;;;;;;24.37;22.97;;;;;;;;;;5033851;28;20419;-79
2022/06/15 03:43:36;;;;;;;23.73;22.20;;;;;;;;;;5033629;28;20459;-79
2022/06/15 03:46:04;;;;;;;23.90;22.50;;;;;;;;;;5033878;28;20418;-79
2022/06/15 03:48:31;;;;;;;23.67;22.23;;;;;;;;;;5033799;28;20403;-78
2022/06/15 03:50:58;;;;;;;23.53;22.17;;;;;;;;;;5033583;28;20436;-79
2022/06/15 03:53:26;;;;;;;23.70;22.40;;;;;;;;;;5033611;28;20476;-79
2022/06/15 03:55:53;;;;;;;23.33;21.93;;;;;;;;;;5033647;28;20750;-79
2022/06/15 03:58:21;;;;;;;24.20;22.67;;;;;;;;;;5033324;28;20440;-80
2022/06/15 04:00:50;;;;;;;23.97;22.37;;;;;;;;;;5033558;28;20421;-79
2022/06/15 04:03:17;;;;;;;24.70;22.97;;;;;;;;;;5033420;28;20424;-78
2022/06/15 04:05:46;;;;;;;23.50;21.80;;;;;;;;;;5033336;28;20447;-79
2022/06/15 04:11:00;;;;;;;23.53;22.00;;;;;;;;;;5033336;28;20423;-79
2022/06/15 04:13:27;;;;;;;23.27;22.07;;;;;;;;;;5033273;28;20823;-79
2022/06/15 04:15:56;;;;;;;22.83;21.47;;;;;;;;;;5033403;28;20447;-79
2022/06/15 04:18:24;;;;;;;23.53;22.03;;;;;;;;;;5033271;28;20448;-78
2022/06/15 04:20:51;;;;;;;23.03;21.60;;;;;;;;;;5033283;28;20418;-78
2022/06/15 04:23:19;;;;;;;23.00;21.70;;;;;;;;;;5033132;28;20777;-78
2022/06/15 04:25:48;;;;;;;22.60;21.30;;;;;;;;;;5033193;28;20445;-78
2022/06/15 04:28:16;;;;;;;23.53;22.13;;;;;;;;;;5033196;28;20444;-79
2022/06/15 04:30:44;;;;;;;22.63;21.23;;;;;;;;;;5033369;28;20836;-79
2022/06/15 04:33:14;;;;;;;23.97;22.27;;;;;;;;;;5032815;28;20432;-78
2022/06/15 04:35:42;;;;;;;23.87;22.43;;;;;;;;;;5032747;28;20488;-78
2022/06/15 04:38:09;;;;;;;24.60;22.90;;;;;;;;;;5032653;28;20955;-79
2022/06/15 04:40:37;;;;;;;23.40;21.97;;;;;;;;;;5032832;28;20436;-78
2022/06/15 04:43:05;;;;;;;24.30;22.70;;;;;;;;;;5032695;28;20423;-80
2022/06/15 04:45:32;;;;;;;24.30;22.80;;;;;;;;;;5033043;28;20798;-79
2022/06/15 04:48:00;;;;;;;23.50;22.10;;;;;;;;;;5032929;28;20432;-78
2022/06/15 04:50:29;;;;;;;24.03;22.63;;;;;;;;;;5032912;28;20469;-79
2022/06/15 04:52:57;;;;;;;24.90;23.53;;;;;;;;;;5032632;28;20483;-78
2022/06/15 04:55:25;;;;;;;23.73;22.33;;;;;;;;;;5032747;28;20466;-78
2022/06/15 04:57:54;;;;;;;23.30;21.90;;;;;;;;;;5032449;28;20452;-78
2022/06/15 05:00:23;;;;;;;24.50;22.90;;;;;;;;;;5036609;28;20415;-79
2022/06/15 05:02:50;;;;;;;23.20;21.70;;;;;;;;;;5039693;28;20440;-79
2022/06/15 05:05:19;;;;;;;24.17;22.53;;;;;;;;;;5039368;28;20787;-79
2022/06/15 05:07:48;;;;;;;23.00;21.70;;;;;;;;;;5038851;28;20840;-79
2022/06/15 05:10:18;;;;;;;23.23;21.83;;;;;;;;;;5039011;28;20440;-79
2022/06/15 05:12:45;;;;;;;24.13;22.60;;;;;;;;;;5039048;28;20452;-79
2022/06/15 05:15:14;;;;;;;24.07;22.43;;;;;;;;;;5038857;28;20869;-79
2022/06/15 05:17:41;;;;;;;23.00;21.60;;;;;;;;;;5038922;28;20840;-79
2022/06/15 05:20:10;;;;;;;23.10;21.80;;;;;;;;;;5038882;28;20925;-79
2022/06/15 05:22:37;;;;;;;24.00;22.60;;;;;;;;;;5039008;28;20418;-78
2022/06/15 05:25:08;;;;;;;24.60;23.00;;;;;;;;;;5039000;28;20832;-79
2022/06/15 05:27:36;;;;;;;24.27;22.67;;;;;;;;;;5039010;28;20415;-78
2022/06/15 05:30:04;;;;;;;24.70;22.80;;;;;;;;;;5039031;28;20478;-78
2022/06/15 05:32:31;;;;;;;24.13;22.63;;;;;;;;;;5039037;28;20427;-78
2022/06/15 05:35:00;;;;;;;24.07;22.77;;;;;;;;;;5038783;28;20491;-78
2022/06/15 05:37:29;;;;;;;25.23;23.60;;;;;;;;;;5038664;28;20414;-79
2022/06/15 05:39:56;;;;;;;24.80;23.33;;;;;;;;;;5038643;28;20481;-78
2022/06/15 05:42:27;;;;;;;24.23;22.73;;;;;;;;;;5039079;28;20414;-79
2022/06/15 05:44:55;;;;;;;24.03;22.23;;;;;;;;;;5039266;28;20440;-78
2022/06/15 05:47:23;;;;;;;24.20;22.70;;;;;;;;;;5038948;28;20864;-78
2022/06/15 05:49:50;;;;;;;24.53;22.73;;;;;;;;;;5039230;28;20444;-79
2022/06/15 05:52:18;;;;;;;24.40;22.70;;;;;;;;;;5038671;28;20439;-78
2022/06/15 05:54:45;;;;;;;24.10;22.60;;;;;;;;;;5038807;28;20986;-78
2022/06/15 05:57:15;;;;;;;24.20;22.80;;;;;;;;;;5038735;28;20443;-79
2022/06/15 05:59:44;;;;;;;24.70;23.30;;;;;;;;;;5038920;28;20418;-79
2022/06/15 06:02:12;;;;;;;23.90;22.30;;;;;;;;;;5038947;28;20440;-78
2022/06/15 06:04:39;;;;;;;23.80;22.37;;;;;;;;;;5038624;28;20452;-78
2022/06/15 06:07:06;;;;;;;23.53;22.03;;;;;;;;;;5038501;28;20428;-78
2022/06/15 06:09:34;;;;;;;23.23;21.93;;;;;;;;;;5038840;28;20415;-78
2022/06/15 06:12:01;;;;;;;24.50;22.73;;;;;;;;;;5034213;28;20925;-77
2022/06/15 06:14:29;;;;;;;23.10;21.50;;;;;;;;;;5033201;28;20454;-78
2022/06/15 06:16:57;;;;;;;22.97;21.70;;;;;;;;;;5035740;28;20403;-78
2022/06/15 06:19:25;;;;;;;23.67;21.90;;;;;;;;;;5035575;28;20950;-79
2022/06/15 06:21:52;;;;;;;22.47;21.13;;;;;;;;;;5035261;28;20411;-78
2022/06/15 06:24:19;;;;;;;22.50;21.20;;;;;;;;;;5035958;28;20431;-82
2022/06/15 06:26:47;;;;;;;22.83;21.33;;;;;;;;;;5035903;28;20443;-84
2022/06/15 06:29:15;;;;;;;24.10;22.20;;;;;;;;;;5035638;28;20801;-83
2022/06/15 06:31:43;;;;;;;23.50;22.10;;;;;;;;;;5035508;28;20418;-83
2022/06/15 06:34:12;;;;;;;23.47;21.97;;;;;;;;;;5035661;28;20468;-84
2022/06/15 06:36:41;;;;;;;23.50;22.20;;;;;;;;;;5035589;28;20462;-84
2022/06/15 06:39:13;;;;;;;23.50;22.10;;;;;;;;;;5035541;28;21043;-84
2022/06/15 06:41:40;;;;;;;24.60;23.00;;;;;;;;;;5035551;28;20431;-82
2022/06/15 06:44:08;;;;;;;24.57;22.97;;;;;;;;;;5035330;28;20404;-83
2022/06/15 06:46:36;;;;;;;23.97;22.27;;;;;;;;;;5033725;28;20862;-83
2022/06/15 06:49:05;;;;;;;23.53;21.93;;;;;;;;;;5035338;28;20452;-84
2022/06/15 06:51:34;;;;;;;23.27;21.87;;;;;;;;;;5035229;28;20756;-83
2022/06/15 06:54:01;;;;;;;22.67;21.37;;;;;;;;;;5035152;28;20427;-83
2022/06/15 06:56:29;;;;;;;24.60;23.20;;;;;;;;;;5035011;28;20919;-83
2022/06/15 06:58:56;;;;;;;24.90;23.50;;;;;;;;;;5035120;28;20448;-84
2022/06/15 07:01:23;;;;;;;24.87;23.37;;;;;;;;;;5035511;28;20415;-85
2022/06/15 07:03:51;;;;;;;24.83;23.23;;;;;;;;;;5035632;28;20422;-85
2022/06/15 07:06:18;;;;;;;24.43;22.83;;;;;;;;;;5035364;28;20431;-84
2022/06/15 07:08:47;;;;;;;25.70;24.00;;;;;;;;;;5034901;28;20452;-83
2022/06/15 07:11:15;;;;;;;24.70;23.20;;;;;;;;;;5035076;28;20422;-84
2022/06/15 07:13:43;;;;;;;23.07;21.67;;;;;;;;;;5035145;28;20437;-84
2022/06/15 07:16:12;;;;;;;24.20;22.67;;;;;;;;;;5035182;28;20509;-84
2022/06/15 07:18:39;;;;;;;24.33;22.83;;;;;;;;;;5034824;28;21215;-85
2022/06/15 07:21:11;;;;;;;24.03;22.63;;;;;;;;;;5034915;28;20923;-87
2022/06/15 07:23:39;;;;;;;24.00;22.50;;;;;;;;;;5028853;28;20420;-84
2022/06/15 07:26:10;;;;;;;23.57;22.27;;;;;;;;;;5017534;28;20435;-84
2022/06/15 07:28:37;;;;;;;25.60;23.90;;;;;;;;;;5014887;28;20447;-84
2022/06/15 07:31:04;;;;;;;24.80;23.00;;;;;;;;;;5017455;28;20419;-84
2022/06/15 07:33:32;;;;;;;24.67;22.90;;;;;;;;;;5014814;28;20420;-83
2022/06/15 07:35:59;;;;;;;23.70;22.30;;;;;;;;;;5032094;28;20773;-74
2022/06/15 07:38:27;;;;;;;23.97;22.50;;;;;;;;;;5027602;28;20470;-74
2022/06/15 07:40:57;;;;;;;23.80;22.20;;;;;;;;;;5013817;28;20458;-74
2022/06/15 07:43:26;;;;;;;23.70;22.30;;;;;;;;;;5022352;28;20452;-74
2022/06/15 07:45:54;;;;;;;23.30;21.90;;;;;;;;;;5033864;28;20448;-74
2022/06/15 07:51:06;;;;;;;23.67;22.17;;;;;;;;;;5033914;28;20485;-80
2022/06/15 07:53:33;;;;;;;24.30;22.20;;;;;;;;;;5033302;28;20422;-77
2022/06/15 07:56:01;;;;;;;24.50;22.70;;;;;;;;;;5027680;28;20458;-82
2022/06/15 07:58:30;;;;;;;23.50;21.80;;;;;;;;;;5033677;28;20459;-85
2022/06/15 08:00:57;;;;;;;23.53;21.83;;;;;;;;;;5034064;28;20415;-83
2022/06/15 08:03:25;;;;;;;24.70;23.00;;;;;;;;;;5033857;28;21290;-82
2022/06/15 08:05:52;;;;;;;23.80;22.30;;;;;;;;;;5016130;28;20766;-82
2022/06/15 08:08:21;;;;;;;23.80;22.13;;;;;;;;;;5033345;28;20885;-83
2022/06/15 08:10:48;;;;;;;24.20;22.70;;;;;;;;;;5033527;28;20439;-76
2022/06/15 08:13:16;;;;;;;23.17;21.73;;;;;;;;;;5032918;28;20415;-82
2022/06/15 08:15:46;;;;;;;23.10;21.63;;;;;;;;;;5033353;28;20454;-84
2022/06/15 08:18:15;;;;;;;23.57;22.07;;;;;;;;;;5033840;28;20444;-83
2022/06/15 08:20:44;;;;;;;23.07;21.67;;;;;;;;;;5016082;28;20447;-86
2022/06/15 08:23:14;;;;;;;23.53;21.83;;;;;;;;;;5032888;28;20407;-79
2022/06/15 08:25:43;;;;;;;23.97;22.43;;;;;;;;;;5033191;28;20433;-79
2022/06/15 08:28:11;;;;;;;23.20;21.70;;;;;;;;;;5033156;28;20794;-79
2022/06/15 08:30:39;;;;;;;24.20;22.60;;;;;;;;;;5015499;28;20941;-79
2022/06/15 08:33:09;;;;;;;24.40;22.87;;;;;;;;;;5033043;28;20768;-76
2022/06/15 08:35:37;;;;;;;25.03;23.13;;;;;;;;;;5032386;28;20466;-80
2022/06/15 08:38:04;;;;;;;24.50;23.10;;;;;;;;;;5015369;28;20461;-82
2022/06/15 08:40:34;;;;;;;25.80;23.97;;;;;;;;;;5033144;28;20411;-81
2022/06/15 08:43:04;;;;;;;23.60;22.20;;;;;;;;;;5032756;28;20407;-80
2022/06/15 08:45:36;;;;;;;24.50;22.70;;;;;;;;;;5015054;28;20938;-79
2022/06/15 08:48:11;;;;;;;23.77;22.30;;;;;;;;;;5032930;28;20411;-80
2022/06/15 08:50:44;;;;;;;23.90;21.80;;;;;;;;;;5032788;28;20407;-80
2022/06/15 08:53:15;;;;;;;23.83;22.33;;;;;;;;;;5032990;28;20415;-80
2022/06/15 08:55:45;;;;;;;23.47;22.07;;;;;;;;;;5032587;28;20466;-80
2022/06/15 08:58:14;;;;;;;24.53;22.87;;;;;;;;;;5032604;28;20443;-80
2022/06/15 09:00:42;;;;;;;22.20;20.80;;;;;;;;;;5032888;28;20791;-80
2022/06/15 09:03:15;;;;;;;24.03;22.47;;;;;;;;;;5015521;28;20505;-80
2022/06/15 09:05:50;;;;;;;24.07;22.53;;;;;;;;;;5032959;28;20407;-82
2022/06/15 09:08:28;;;;;;;23.20;21.70;;;;;;;;;;5032996;28;20765;-82
2022/06/15 09:11:00;;;;;;;24.67;22.80;;;;;;;;;;5032472;28;20417;-81
2022/06/15 09:13:38;;;;;;;23.10;21.40;;;;;;;;;;5032564;28;20426;-87
2022/06/15 09:16:09;;;;;;;23.60;22.07;;;;;;;;;;5033371;28;20466;-84
2022/06/15 09:18:38;;;;;;;24.20;22.70;;;;;;;;;;5015133;28;20502;-83
2022/06/15 09:21:09;;;;;;;22.70;21.40;;;;;;;;;;5033336;28;20467;-84
2022/06/15 09:23:41;;;;;;;22.90;21.50;;;;;;;;;;5033020;28;20918;-84
2022/06/15 09:26:11;;;;;;;23.03;21.63;;;;;;;;;;5032964;28;20464;-84
2022/06/15 09:28:41;;;;;;;23.87;22.10;;;;;;;;;;5033154;28;20475;-83
2022/06/15 09:31:12;;;;;;;23.60;22.00;;;;;;;;;;5033186;28;20410;-84
2022/06/15 09:33:41;;;;;;;24.60;23.10;;;;;;;;;;5032753;28;20422;-84
2022/06/15 09:36:13;;;;;;;23.27;21.87;;;;;;;;;;5032594;28;20491;-83
2022/06/15 09:38:41;;;;;;;23.43;21.93;;;;;;;;;;5032669;28;20462;-83
2022/06/15 09:41:11;;;;;;;23.57;22.23;;;;;;;;;;5032735;28;20922;-84
2022/06/15 09:43:41;;;;;;;23.77;22.13;;;;;;;;;;5033077;28;20469;-83
2022/06/15 09:46:12;;;;;;;25.30;23.63;;;;;;;;;;5034615;28;20448;-84
2022/06/15 09:48:45;;;;;;;24.10;22.50;;;;;;;;;;5037230;28;20411;-86
2022/06/15 09:51:18;;;;;;;23.43;22.13;;;;;;;;;;5037251;28;20440;-87
2022/06/15 09:53:49;;;;;;;25.37;23.80;;;;;;;;;;5037038;28;20426;-85
2022/06/15 09:56:18;;;;;;;24.47;22.70;;;;;;;;;;5036575;28;20493;-87
2022/06/15 09:58:46;;;;;;;25.20;23.50;;;;;;;;;;5036249;28;20476;-74
2022/06/15 10:01:13;;;;;;;24.90;23.30;;;;;;;;;;5035764;28;20410;-82
2022/06/15 10:03:44;;;;;;;24.13;22.60;;;;;;;;;;5035784;28;20414;-81
2022/06/15 10:06:18;;;;;;;24.30;22.70;;;;;;;;;;5035390;28;20928;-81
2022/06/15 10:08:45;;;;;;;24.67;23.17;;;;;;;;;;5035887;28;20430;-81
2022/06/15 10:11:16;;;;;;;24.00;22.50;;;;;;;;;;5035549;28;20487;-81
2022/06/15 10:13:43;;;;;;;23.70;22.27;;;;;;;;;;5035759;28;20411;-82
2022/06/15 10:16:20;;;;;;;24.03;22.63;;;;;;;;;;5035406;28;20469;-80
2022/06/15 10:18:48;;;;;;;24.90;23.20;;;;;;;;;;5035674;28;20407;-81
2022/06/15 10:21:21;;;;;;;24.20;22.80;;;;;;;;;;5035663;28;20433;-76
2022/06/15 10:24:00;;;;;;;24.23;22.30;;;;;;;;;;5035684;28;20436;-81
2022/06/15 10:26:39;;;;;;;25.00;23.60;;;;;;;;;;5035165;28;20440;-82
2022/06/15 10:29:22;;;;;;;26.50;24.90;;;;;;;;;;5035227;28;20442;-81
2022/06/15 10:31:59;;;;;;;24.80;23.40;;;;;;;;;;5035065;28;20410;-81
2022/06/15 10:34:28;;;;;;;25.30;23.90;;;;;;;;;;5017544;28;20437;-80
2022/06/15 10:36:59;;;;;;;24.70;23.30;;;;;;;;;;5035138;28;20554;-81
2022/06/15 10:39:28;;;;;;;25.37;23.67;;;;;;;;;;5034742;28;20451;-80
2022/06/15 10:42:00;;;;;;;25.10;23.53;;;;;;;;;;5034922;28;20415;-81
2022/06/15 10:44:30;;;;;;;23.30;22.00;;;;;;;;;;5034911;28;20422;-80
2022/06/15 10:47:00;;;;;;;25.27;23.57;;;;;;;;;;5034929;28;20422;-81
2022/06/15 10:49:28;;;;;;;25.37;23.80;;;;;;;;;;5017384;28;20415;-80
2022/06/15 10:51:56;;;;;;;24.20;22.60;;;;;;;;;;5035009;28;20770;-80
2022/06/15 11:02:06;;;;;;;26.50;24.50;;;;;;;;;;5034713;28;20776;-80
2022/06/15 11:03:04;;;;;;;26.10;24.50;;;;;;;;;;5034696;28;20467;-81
2022/06/15 11:05:33;;;;;;;25.63;23.90;;;;;;;;;;5034742;28;20443;-80
2022/06/15 11:08:05;;;;;;;25.27;23.77;;;;;;;;;;5034529;28;20523;-81
2022/06/15 11:10:34;;;;;;;25.37;23.80;;;;;;;;;;5034646;28;20459;-80
2022/06/15 11:13:02;;;;;;;24.37;22.77;;;;;;;;;;5034567;28;20436;-80
2022/06/15 11:18:21;;;;;;;25.60;24.00;;;;;;;;;;5033621;28;20486;-80
2022/06/15 11:20:50;;;;;;;24.83;23.17;;;;;;;;;;5034475;28;20444;-81
2022/06/15 11:23:22;;;;;;;25.50;23.37;;;;;;;;;;5034509;28;20444;-80
2022/06/15 11:25:51;;;;;;;24.90;23.30;;;;;;;;;;5034023;28;20444;-80
2022/06/15 11:28:20;;;;;;;25.67;24.07;;;;;;;;;;5034248;28;20464;-81
2022/06/15 11:30:52;;;;;;;24.80;23.30;;;;;;;;;;5034190;28;20444;-81
2022/06/15 11:33:21;;;;;;;23.80;22.30;;;;;;;;;;5033905;28;20440;-80
2022/06/15 11:35:53;;;;;;;25.33;23.73;;;;;;;;;;5034140;28;20450;-80
2022/06/15 11:38:29;;;;;;;25.33;23.70;;;;;;;;;;5033828;28;20485;-81
2022/06/15 11:40:58;;;;;;;24.43;22.50;;;;;;;;;;5034329;28;20455;-80
2022/06/15 11:43:28;;;;;;;24.23;22.63;;;;;;;;;;5034094;28;20419;-80
2022/06/15 11:46:11;;;;;;;24.77;23.17;;;;;;;;;;5034031;28;20448;-80
2022/06/15 11:48:44;;;;;;;23.73;22.13;;;;;;;;;;5033578;28;20411;-80
2022/06/15 11:51:17;;;;;;;24.43;22.87;;;;;;;;;;5033880;28;20801;-80
2022/06/15 11:53:51;;;;;;;24.10;22.50;;;;;;;;;;5033942;28;20407;-80
2022/06/15 11:56:21;;;;;;;24.10;22.60;;;;;;;;;;5033304;28;20470;-80
2022/06/15 11:58:53;;;;;;;24.47;22.53;;;;;;;;;;5033640;28;20462;-81
2022/06/15 12:01:31;;;;;;;23.40;21.90;;;;;;;;;;5033462;28;20427;-80
2022/06/15 12:04:16;;;;;;;24.43;22.70;;;;;;;;;;5033338;28;20518;-80
2022/06/15 12:06:49;;;;;;;23.70;22.27;;;;;;;;;;5033423;28;20448;-80
2022/06/15 12:09:22;;;;;;;24.10;22.50;;;;;;;;;;5032309;28;20415;-80
2022/06/15 12:14:41;;;;;;;24.77;23.20;;;;;;;;;;5033245;28;20387;-78
2022/06/15 12:17:12;;;;;;;24.20;22.70;;;;;;;;;;5032871;28;20960;-80
2022/06/15 12:19:45;;;;;;;23.80;22.40;;;;;;;;;;5032987;28;20432;-79
2022/06/15 12:22:17;;;;;;;24.97;23.37;;;;;;;;;;5033582;28;20769;-80
2022/06/15 12:24:51;;;;;;;25.53;24.00;;;;;;;;;;5033350;28;20413;-79
2022/06/15 12:27:20;;;;;;;25.10;23.37;;;;;;;;;;5032839;28;20409;-80
2022/06/15 12:29:50;;;;;;;24.73;23.13;;;;;;;;;;5033155;28;20464;-79
2022/06/15 12:32:33;;;;;;;25.13;23.53;;;;;;;;;;5033245;28;20423;-74
2022/06/15 12:35:04;;;;;;;24.70;23.20;;;;;;;;;;5033334;28;20407;-80
2022/06/15 12:37:33;;;;;;;25.70;24.00;;;;;;;;;;5032825;28;20458;-79
2022/06/15 12:40:12;;;;;;;25.30;23.40;;;;;;;;;;5032579;28;20495;-79
2022/06/15 12:42:40;;;;;;;25.00;23.50;;;;;;;;;;5033092;28;20446;-79
2022/06/15 12:45:09;;;;;;;24.20;22.80;;;;;;;;;;5032893;28;20892;-80
2022/06/15 12:47:38;;;;;;;24.23;22.83;;;;;;;;;;5015105;28;20466;-80
2022/06/15 12:50:19;;;;;;;24.50;22.90;;;;;;;;;;5024511;28;20927;-80
2022/06/15 12:52:50;;;;;;;25.37;23.87;;;;;;;;;;5032896;28;20472;-80
2022/06/15 12:55:24;;;;;;;25.33;23.67;;;;;;;;;;5032959;28;20407;-80
2022/06/15 12:57:55;;;;;;;25.50;23.83;;;;;;;;;;5032576;28;21008;-80
2022/06/15 13:00:24;;;;;;;25.43;23.70;;;;;;;;;;5014787;28;20422;-80
2022/06/15 13:02:56;;;;;;;25.53;23.73;;;;;;;;;;5032771;28;20415;-79
2022/06/15 13:05:25;;;;;;;25.50;24.00;;;;;;;;;;5032684;28;20861;-80
2022/06/15 13:08:11;;;;;;;24.77;23.20;;;;;;;;;;5032863;28;20528;-79
2022/06/15 13:10:59;;;;;;;25.33;23.73;;;;;;;;;;5032370;28;20953;-80
2022/06/15 13:13:28;;;;;;;24.03;22.57;;;;;;;;;;5032749;28;20418;-80
2022/06/15 13:15:59;;;;;;;25.60;23.90;;;;;;;;;;5032394;28;20932;-80
2022/06/15 13:18:39;;;;;;;25.57;23.63;;;;;;;;;;5032395;28;20519;-81
2022/06/15 13:21:07;;;;;;;25.67;23.93;;;;;;;;;;5034035;28;20931;-80
2022/06/15 13:23:37;;;;;;;24.53;22.97;;;;;;;;;;5036769;28;20442;-80
2022/06/15 13:26:08;;;;;;;24.77;22.63;;;;;;;;;;5036701;28;20422;-80
2022/06/15 13:28:37;;;;;;;25.13;23.37;;;;;;;;;;5036590;28;20446;-80
2022/06/15 13:31:06;;;;;;;25.03;23.33;;;;;;;;;;5036666;28;20444;-80
2022/06/15 13:33:52;;;;;;;25.27;23.53;;;;;;;;;;5036414;28;20418;-80
2022/06/15 13:36:20;;;;;;;25.20;23.60;;;;;;;;;;5036187;28;20422;-80
2022/06/15 13:38:47;;;;;;;25.63;24.03;;;;;;;;;;5036221;28;20525;-80
2022/06/15 13:41:23;;;;;;;25.87;24.10;;;;;;;;;;5036043;28;21161;-80
2022/06/15 13:44:09;;;;;;;25.17;23.47;;;;;;;;;;5034027;28;20443;-72
2022/06/15 13:46:38;;;;;;;25.70;24.00;;;;;;;;;;5034175;28;20489;-72
2022/06/15 13:49:07;;;;;;;25.90;24.10;;;;;;;;;;5035961;28;20436;-73
2022/06/15 13:51:37;;;;;;;24.77;23.37;;;;;;;;;;5035474;28;20411;-73
2022/06/15 13:54:12;;;;;;;24.90;23.27;;;;;;;;;;5036056;28;20446;-73
2022/06/15 13:56:44;;;;;;;25.07;23.47;;;;;;;;;;5035529;28;20457;-73
2022/06/15 13:59:16;;;;;;;24.50;22.73;;;;;;;;;;5036136;28;20415;-74
2022/06/15 14:01:58;;;;;;;26.00;24.00;;;;;;;;;;5035957;28;20411;-74
2022/06/15 14:04:41;;;;;;;26.20;24.40;;;;;;;;;;5013908;28;20456;-78
2022/06/15 14:07:28;;;;;;;25.03;23.43;;;;;;;;;;5015935;28;20569;-78
2022/06/15 14:10:01;;;;;;;25.73;23.77;;;;;;;;;;5015721;28;20943;-78
2022/06/15 14:12:36;;;;;;;25.60;24.00;;;;;;;;;;5015489;28;20905;-78
2022/06/15 14:15:29;;;;;;;25.60;23.80;;;;;;;;;;5015966;28;20407;-78
2022/06/15 14:18:20;;;;;;;25.73;23.83;;;;;;;;;;5015617;28;20451;-78
2022/06/15 14:20:48;;;;;;;25.20;23.50;;;;;;;;;;5015471;28;20919;-77
2022/06/15 14:23:26;;;;;;;25.20;23.60;;;;;;;;;;5016001;28;20441;-78
2022/06/15 14:25:54;;;;;;;25.33;23.40;;;;;;;;;;5015603;28;20422;-77
2022/06/15 14:28:24;;;;;;;25.80;23.70;;;;;;;;;;5015459;28;20447;-77
2022/06/15 14:31:00;;;;;;;25.63;24.00;;;;;;;;;;5015566;28;20427;-76
2022/06/15 14:33:29;;;;;;;25.63;23.93;;;;;;;;;;5013966;28;20437;-77
2022/06/15 14:36:00;;;;;;;25.93;24.03;;;;;;;;;;5015462;28;20444;-77
2022/06/15 14:38:29;;;;;;;25.53;23.93;;;;;;;;;;5015099;28;20543;-77
2022/06/15 14:41:10;;;;;;;25.60;24.00;;;;;;;;;;5015458;28;20451;-77
2022/06/15 14:43:39;;;;;;;25.83;24.20;;;;;;;;;;5014988;28;20992;-77
2022/06/15 14:46:06;;;;;;;25.97;24.17;;;;;;;;;;5014943;28;20936;-77
2022/06/15 14:48:36;;;;;;;24.53;22.93;;;;;;;;;;5014878;28;20882;-77
2022/06/15 14:51:07;;;;;;;25.30;23.70;;;;;;;;;;5015047;28;20933;-78